createdAt,value
2022-08-09T00:00:04.941Z,77.45
2022-08-09T00:02:34.120Z,77.98
2022-08-09T00:06:16.476Z,77.75
2022-08-09T00:07:48.433Z,79.51
2022-08-09T00:10:21.185Z,80.35
2022-08-09T00:12:51.673Z,79.83
2022-08-09T00:15:26.448Z,79.44
2022-08-09T00:18:05.885Z,79.32
2022-08-09T00:20:42.354Z,78.79
2022-08-09T00:23:54.724Z,79.33
2022-08-09T00:26:08.026Z,77.92
2022-08-09T00:28:35.178Z,78.32
2022-08-09T00:31:09.282Z,78.18
2022-08-09T00:33:52.011Z,81.50
2022-08-09T00:36:19.883Z,82.39
2022-08-09T00:38:46.539Z,83.39
2022-08-09T00:44:13.010Z,85.34
2022-08-09T00:44:19.801Z,84.43
2022-08-09T00:46:56.986Z,86.15
2022-08-09T00:49:31.296Z,86.56
2022-08-09T00:51:58.758Z,86.51
2022-08-09T00:54:36.366Z,86.07
2022-08-09T00:57:10.263Z,87.28
2022-08-09T00:59:46.642Z,87.51
2022-08-09T01:02:21.469Z,88.10
2022-08-09T01:04:54.118Z,88.27
2022-08-09T01:07:37.570Z,88.19
2022-08-09T01:10:39.446Z,85.76
2022-08-09T01:13:58.816Z,85.39
2022-08-09T01:16:33.149Z,85.94
2022-08-09T01:19:16.780Z,87.61
2022-08-09T01:22:33.240Z,87.53
2022-08-09T01:25:26.712Z,90.76
2022-08-09T01:27:57.035Z,89.16
2022-08-09T01:30:35.383Z,88.59
2022-08-09T01:33:07.641Z,87.72
2022-08-09T01:35:47.366Z,88.57
2022-08-09T01:38:27.578Z,89.47
2022-08-09T01:41:03.089Z,88.13
2022-08-09T01:43:50.577Z,87.01
2022-08-09T01:46:33.443Z,85.75
2022-08-09T01:49:10.677Z,86.52
2022-08-09T01:52:07.876Z,87.40
2022-08-09T01:54:42.194Z,86.55
2022-08-09T01:57:20.791Z,88.25
2022-08-09T01:59:52.666Z,87.94
2022-08-09T02:02:31.061Z,88.54
2022-08-09T02:05:05.410Z,87.94
2022-08-09T02:08:40.764Z,87.38
2022-08-09T02:10:35.554Z,89.21
2022-08-09T02:13:05.259Z,90.17
2022-08-09T02:15:36.202Z,89.74
2022-08-09T02:18:26.945Z,88.22
2022-08-09T02:21:02.885Z,88.33
2022-08-09T02:23:42.918Z,87.26
2022-08-09T02:26:25.304Z,87.01
2022-08-09T02:28:59.674Z,86.13
2022-08-09T02:31:38.795Z,86.88
2022-08-09T02:34:13.299Z,89.11
2022-08-09T02:36:44.586Z,90.17
2022-08-09T02:39:33.722Z,89.44
2022-08-09T02:42:16.737Z,89.05
2022-08-09T02:45:03.049Z,89.37
2022-08-09T02:47:33.920Z,89.67
2022-08-09T02:50:30.222Z,88.98
2022-08-09T02:53:02.669Z,88.59
2022-08-09T02:55:46.103Z,88.93
2022-08-09T02:58:35.413Z,88.92
2022-08-09T03:01:08.085Z,90.01
2022-08-09T03:04:17.416Z,89.42
2022-08-09T03:06:27.850Z,89.67
2022-08-09T03:08:57.147Z,89.65
2022-08-09T03:12:04.295Z,89.90
2022-08-09T03:14:12.830Z,89.40
2022-08-09T03:16:45.157Z,89.10
2022-08-09T03:19:58.405Z,89.61
2022-08-09T03:22:12.478Z,91.13
2022-08-09T03:25:06.707Z,90.32
2022-08-09T03:27:45.062Z,90.60
2022-08-09T03:30:13.523Z,94.73
2022-08-09T03:32:41.601Z,95.65
2022-08-09T03:35:14.973Z,95.95
2022-08-09T03:37:56.376Z,96.38
2022-08-09T03:40:25.313Z,97.22
2022-08-09T03:42:57.466Z,97.02
2022-08-09T03:46:05.089Z,97.67
2022-08-09T03:48:10.981Z,99.30
2022-08-09T03:50:39.892Z,100.00
2022-08-09T03:53:10.788Z,100.00
2022-08-09T03:55:40.988Z,100.00
2022-08-09T03:58:16.339Z,100.00
2022-08-09T04:00:45.708Z,100.00
2022-08-09T04:03:24.610Z,100.00
2022-08-09T04:06:04.587Z,100.00
2022-08-09T04:08:32.148Z,100.00
2022-08-09T04:11:01.636Z,100.00
2022-08-09T04:14:37.484Z,100.00
2022-08-09T04:16:19.690Z,100.00
2022-08-09T04:18:46.908Z,100.00
2022-08-09T04:21:15.825Z,100.00
2022-08-09T04:23:53.760Z,100.00
2022-08-09T04:26:23.298Z,100.00
2022-08-09T04:28:50.374Z,100.00
2022-08-09T04:31:16.908Z,100.00
2022-08-09T04:33:53.019Z,100.00
2022-08-09T04:36:24.830Z,100.00
2022-08-09T04:38:52.455Z,100.00
2022-08-09T04:41:19.346Z,100.00
2022-08-09T04:44:06.491Z,100.00
2022-08-09T04:46:37.641Z,100.00
2022-08-09T04:49:30.274Z,100.00
2022-08-09T04:52:07.882Z,100.00
2022-08-09T04:54:36.673Z,99.90
2022-08-09T04:57:03.765Z,99.00
2022-08-09T04:59:30.787Z,97.63
2022-08-09T05:01:57.310Z,98.81
2022-08-09T05:04:23.883Z,100.00
2022-08-09T05:06:58.412Z,100.00
2022-08-09T05:09:24.963Z,100.00
2022-08-09T05:12:11.076Z,100.00
2022-08-09T05:14:39.022Z,100.00
2022-08-09T05:18:36.924Z,100.00
2022-08-09T05:19:57.125Z,100.00
2022-08-09T05:22:36.272Z,99.94
2022-08-09T05:25:11.717Z,99.09
2022-08-09T05:27:45.341Z,97.45
2022-08-09T05:30:13.848Z,96.56
2022-08-09T05:32:42.061Z,96.69
2022-08-09T05:35:11.229Z,94.60
2022-08-09T05:37:46.381Z,93.82
2022-08-09T05:40:15.138Z,93.99
2022-08-09T05:42:42.782Z,95.64
2022-08-09T05:45:10.955Z,97.32
2022-08-09T05:47:52.545Z,96.59
2022-08-09T05:50:44.024Z,94.57
2022-08-09T05:53:11.758Z,93.19
2022-08-09T05:55:57.970Z,92.88
2022-08-09T05:58:24.507Z,92.24
2022-08-09T06:00:51.017Z,92.08
2022-08-09T06:03:19.906Z,92.56
2022-08-09T06:05:57.818Z,91.01
2022-08-09T06:08:32.620Z,92.62
2022-08-09T06:10:59.341Z,91.10
2022-08-09T06:13:28.242Z,91.26
2022-08-09T06:15:55.269Z,91.22
2022-08-09T06:18:25.433Z,90.15
2022-08-09T06:20:57.034Z,88.69
2022-08-09T06:23:58.952Z,88.80
2022-08-09T06:26:15.069Z,89.24
2022-08-09T06:28:47.173Z,89.19
2022-08-09T06:31:13.656Z,87.03
2022-08-09T06:33:42.065Z,86.86
2022-08-09T06:36:15.366Z,87.02
2022-08-09T06:38:50.005Z,87.94
2022-08-09T06:41:18.778Z,87.72
2022-08-09T06:43:47.098Z,86.79
2022-08-09T06:46:39.058Z,86.19
2022-08-09T06:49:00.782Z,85.09
2022-08-09T06:51:28.156Z,83.73
2022-08-09T06:53:55.162Z,83.42
2022-08-09T06:56:21.924Z,81.87
2022-08-09T07:00:51.425Z,80.57
2022-08-09T07:01:54.255Z,79.65
2022-08-09T07:04:27.043Z,80.23
2022-08-09T07:07:00.728Z,78.80
2022-08-09T07:09:57.344Z,77.64
2022-08-09T07:12:38.538Z,76.84
2022-08-09T07:16:34.927Z,75.78
2022-08-09T07:18:01.926Z,75.84
2022-08-09T07:20:29.235Z,75.96
2022-08-09T07:22:55.962Z,74.10
2022-08-09T07:25:25.017Z,74.51
2022-08-09T07:27:53.673Z,73.41
2022-08-09T07:30:25.268Z,74.09
2022-08-09T07:32:52.476Z,74.30
2022-08-09T07:35:19.290Z,72.93
2022-08-09T07:37:47.899Z,71.57
2022-08-09T07:40:20.578Z,72.49
2022-08-09T07:43:16.394Z,72.75
2022-08-09T07:45:44.489Z,72.33
2022-08-09T07:48:28.704Z,71.38
2022-08-09T07:51:10.074Z,71.63
2022-08-09T07:54:07.009Z,71.84
2022-08-09T07:56:38.968Z,72.44
2022-08-09T07:59:25.450Z,70.31
2022-08-09T08:02:01.935Z,71.06
2022-08-09T08:04:32.245Z,69.05
2022-08-09T08:07:15.319Z,68.32
2022-08-09T08:10:05.776Z,67.88
2022-08-09T08:12:43.464Z,67.45
2022-08-09T08:15:16.705Z,68.15
2022-08-09T08:17:54.170Z,68.50
2022-08-09T08:20:28.747Z,68.22
2022-08-09T08:22:58.717Z,68.02
2022-08-09T08:25:44.166Z,67.73
2022-08-09T08:28:14.472Z,66.09
2022-08-09T08:30:43.186Z,66.92
2022-08-09T08:33:11.843Z,65.38
2022-08-09T08:35:59.708Z,65.14
2022-08-09T08:38:28.469Z,65.64
2022-08-09T08:40:57.124Z,65.02
2022-08-09T08:43:26.515Z,65.02
2022-08-09T08:46:25.024Z,64.20
2022-08-09T08:48:51.091Z,64.32
2022-08-09T08:51:18.942Z,63.52
2022-08-09T08:54:03.947Z,63.01
2022-08-09T08:56:37.736Z,63.37
2022-08-09T08:59:19.427Z,62.23
2022-08-09T09:01:53.172Z,61.24
2022-08-09T09:04:27.692Z,60.12
2022-08-09T09:06:58.113Z,58.85
2022-08-09T09:09:41.170Z,59.49
2022-08-09T09:12:19.465Z,57.70
2022-08-09T09:14:49.737Z,55.70
2022-08-09T09:17:18.629Z,55.38
2022-08-09T09:19:47.758Z,57.19
2022-08-09T09:22:16.993Z,55.84
2022-08-09T09:25:00.875Z,54.90
2022-08-09T09:28:06.277Z,54.38
2022-08-09T09:30:44.319Z,54.32
2022-08-09T09:33:17.494Z,53.32
2022-08-09T09:36:01.470Z,53.42
2022-08-09T09:38:39.456Z,53.32
2022-08-09T09:41:07.298Z,53.31
2022-08-09T09:43:41.591Z,54.75
2022-08-09T09:46:39.584Z,54.38
2022-08-09T09:49:13.185Z,54.19
2022-08-09T09:51:41.402Z,52.64
2022-08-09T09:54:20.490Z,53.00
2022-08-09T09:56:53.384Z,52.48
2022-08-09T09:59:36.242Z,51.41
2022-08-09T10:02:02.742Z,51.84
2022-08-09T10:04:30.913Z,51.76
2022-08-09T10:06:58.150Z,51.56
2022-08-09T10:09:25.478Z,51.58
2022-08-09T10:12:15.002Z,51.76
2022-08-09T10:14:49.993Z,52.64
2022-08-09T10:17:39.610Z,51.16
2022-08-09T10:20:35.672Z,50.93
2022-08-09T10:23:22.024Z,49.61
2022-08-09T10:26:06.688Z,48.77
2022-08-09T10:28:38.499Z,47.69
2022-08-09T10:34:10.068Z,47.80
2022-08-09T10:36:43.079Z,48.37
2022-08-09T10:39:13.843Z,48.04
2022-08-09T10:41:42.827Z,47.92
2022-08-09T10:44:10.275Z,47.61
2022-08-09T10:46:55.124Z,47.08
2022-08-09T10:49:50.150Z,46.60
2022-08-09T10:52:43.025Z,46.18
2022-08-09T10:55:26.737Z,46.30
2022-08-09T10:58:00.514Z,46.52
2022-08-09T11:03:06.450Z,45.89
2022-08-09T11:03:50.366Z,46.91
2022-08-09T11:06:16.740Z,46.48
2022-08-09T11:08:51.293Z,47.41
2022-08-09T11:11:20.982Z,46.23
2022-08-09T11:14:28.355Z,46.54
2022-08-09T11:16:57.043Z,46.44
2022-08-09T11:20:10.670Z,45.71
2022-08-09T11:22:40.573Z,47.45
2022-08-09T11:25:12.277Z,45.42
2022-08-09T11:28:02.530Z,45.76
2022-08-09T11:30:33.275Z,44.94
2022-08-09T11:33:01.362Z,45.68
2022-08-09T11:35:49.909Z,43.11
2022-08-09T11:38:28.651Z,43.79
2022-08-09T11:41:37.855Z,44.00
2022-08-09T11:44:07.931Z,44.88
2022-08-09T11:46:54.946Z,44.44
2022-08-09T11:50:55.787Z,43.64
2022-08-09T11:53:21.497Z,43.92
2022-08-09T11:55:52.298Z,45.06
2022-08-09T11:58:32.278Z,43.36
2022-08-09T12:01:08.891Z,43.14
2022-08-09T12:04:00.643Z,42.80
2022-08-09T12:06:32.579Z,42.17
2022-08-09T12:09:19.495Z,42.54
2022-08-09T12:12:03.580Z,42.45
2022-08-09T12:14:40.851Z,43.01
2022-08-09T12:17:34.373Z,42.88
2022-08-09T12:20:16.573Z,42.33
2022-08-09T12:22:50.248Z,41.91
2022-08-09T12:25:31.978Z,42.24
2022-08-09T12:29:15.614Z,41.55
2022-08-09T12:31:31.229Z,40.91
2022-08-09T12:34:11.074Z,42.14
2022-08-09T12:36:59.050Z,42.31
2022-08-09T12:39:37.800Z,41.87
2022-08-09T12:42:09.119Z,41.14
2022-08-09T12:44:38.205Z,40.69
2022-08-09T12:47:09.898Z,41.93
2022-08-09T12:49:39.525Z,41.09
2022-08-09T12:52:17.875Z,41.83
2022-08-09T12:56:11.435Z,41.36
2022-08-09T12:57:43.374Z,41.85
2022-08-09T13:00:35.300Z,39.92
2022-08-09T13:03:05.089Z,42.24
2022-08-09T13:05:52.530Z,41.72
2022-08-09T13:08:41.006Z,41.11
2022-08-09T13:11:22.936Z,40.66
2022-08-09T13:14:42.268Z,39.87
2022-08-09T13:16:50.785Z,39.12
2022-08-09T13:20:09.096Z,37.64
2022-08-09T13:22:37.023Z,38.66
2022-08-09T13:25:13.991Z,37.27
2022-08-09T13:27:55.206Z,39.66
2022-08-09T13:30:48.706Z,39.78
2022-08-09T13:33:11.613Z,40.60
2022-08-09T13:36:38.004Z,40.20
2022-08-09T13:38:57.535Z,40.87
2022-08-09T13:41:57.992Z,38.52
2022-08-09T13:44:13.737Z,39.88
2022-08-09T13:47:26.575Z,37.29
2022-08-09T13:49:37.880Z,38.04
2022-08-09T13:52:09.192Z,39.09
2022-08-09T13:54:36.614Z,38.66
2022-08-09T13:57:14.543Z,39.06
2022-08-09T13:59:58.160Z,38.57
2022-08-09T14:02:26.146Z,37.75
2022-08-09T14:04:59.375Z,38.92
2022-08-09T14:07:30.181Z,39.04
2022-08-09T14:10:09.250Z,37.99
2022-08-09T14:12:44.356Z,38.09
2022-08-09T14:16:07.099Z,37.78
2022-08-09T14:18:06.425Z,37.68
2022-08-09T14:20:44.126Z,37.38
2022-08-09T14:23:20.270Z,38.13
2022-08-09T14:26:01.513Z,37.75
2022-08-09T14:28:32.275Z,37.97
2022-08-09T14:30:58.767Z,37.49
2022-08-09T14:33:25.238Z,36.64
2022-08-09T14:35:53.499Z,39.68
2022-08-09T14:38:20.088Z,37.50
2022-08-09T14:41:04.203Z,38.55
2022-08-09T14:43:53.213Z,38.51
2022-08-09T14:46:55.972Z,38.20
2022-08-09T14:49:06.144Z,37.95
2022-08-09T14:51:42.191Z,38.29
2022-08-09T14:54:09.582Z,38.19
2022-08-09T14:56:57.637Z,38.01
2022-08-09T14:59:23.565Z,37.96
2022-08-09T15:01:50.457Z,37.57
2022-08-09T15:04:16.996Z,38.11
2022-08-09T15:06:43.478Z,37.61
2022-08-09T15:09:16.774Z,38.09
2022-08-09T15:12:04.529Z,38.30
2022-08-09T15:14:34.426Z,37.15
2022-08-09T15:17:04.851Z,38.10
2022-08-09T15:19:36.195Z,37.40
2022-08-09T15:22:03.657Z,37.26
2022-08-09T15:24:31.267Z,38.29
2022-08-09T15:26:59.869Z,37.76
2022-08-09T15:30:56.022Z,37.66
2022-08-09T15:32:39.057Z,38.64
2022-08-09T15:35:40.266Z,38.03
2022-08-09T15:37:57.012Z,38.01
2022-08-09T15:40:43.918Z,38.66
2022-08-09T15:43:13.687Z,38.46
2022-08-09T15:45:52.066Z,38.11
2022-08-09T15:48:28.553Z,37.99
2022-08-09T15:50:57.756Z,37.78
2022-08-09T15:54:05.417Z,38.21
2022-08-09T15:56:21.650Z,37.62
2022-08-09T15:58:58.891Z,37.26
2022-08-09T16:01:25.850Z,37.69
2022-08-09T16:03:52.382Z,36.97
2022-08-09T16:06:29.494Z,36.94
2022-08-09T16:09:03.432Z,37.57
2022-08-09T16:11:33.099Z,36.75
2022-08-09T16:14:03.450Z,36.59
2022-08-09T16:16:34.775Z,36.46
2022-08-09T16:19:04.827Z,37.02
2022-08-09T16:21:34.979Z,37.22
2022-08-09T16:24:03.031Z,36.78
2022-08-09T16:26:34.778Z,37.09
2022-08-09T16:29:11.698Z,36.24
2022-08-09T16:32:19.048Z,37.11
2022-08-09T16:34:55.545Z,37.14
2022-08-09T16:37:54.916Z,36.69
2022-08-09T16:40:10.070Z,36.50
2022-08-09T16:42:37.161Z,37.01
2022-08-09T16:45:06.307Z,37.29
2022-08-09T16:48:42.503Z,37.58
2022-08-09T16:50:32.337Z,36.97
2022-08-09T16:53:02.649Z,37.23
2022-08-09T16:55:44.425Z,37.31
2022-08-09T16:58:16.880Z,38.76
2022-08-09T17:00:43.740Z,38.02
2022-08-09T17:03:21.892Z,38.35
2022-08-09T17:06:08.640Z,38.48
2022-08-09T17:09:02.795Z,38.43
2022-08-09T17:11:39.967Z,38.84
2022-08-09T17:14:25.358Z,38.42
2022-08-09T17:16:59.758Z,39.31
2022-08-09T17:20:05.914Z,38.43
2022-08-09T17:22:24.991Z,37.86
2022-08-09T17:25:03.216Z,37.64
2022-08-09T17:27:32.268Z,37.43
2022-08-09T17:29:58.806Z,37.39
2022-08-09T17:32:26.657Z,37.41
2022-08-09T17:35:11.750Z,37.90
2022-08-09T17:38:11.282Z,37.27
2022-08-09T17:40:28.670Z,37.36
2022-08-09T17:42:59.756Z,37.87
2022-08-09T17:46:03.415Z,37.77
2022-08-09T17:48:29.162Z,38.75
2022-08-09T17:51:01.717Z,39.07
2022-08-09T17:53:35.674Z,38.78
2022-08-09T17:56:10.026Z,38.94
2022-08-09T17:58:36.499Z,38.42
2022-08-09T18:01:03.165Z,39.00
2022-08-09T18:03:31.737Z,39.37
2022-08-09T18:06:00.987Z,38.79
2022-08-09T18:08:28.599Z,38.95
2022-08-09T18:11:01.647Z,39.24
2022-08-09T18:13:43.253Z,39.50
2022-08-09T18:16:17.169Z,39.46
2022-08-09T18:18:56.253Z,39.40
2022-08-09T18:21:24.415Z,39.89
2022-08-09T18:24:11.324Z,39.45
2022-08-09T18:26:46.776Z,39.94
2022-08-09T18:30:35.097Z,40.22
2022-08-09T18:32:03.745Z,40.24
2022-08-09T18:34:34.889Z,40.44
2022-08-09T18:37:04.647Z,40.93
2022-08-09T18:39:39.552Z,40.56
2022-08-09T18:42:09.101Z,40.74
2022-08-09T18:44:35.745Z,40.95
2022-08-09T18:47:07.337Z,41.11
2022-08-09T18:49:43.020Z,40.88
2022-08-09T18:52:13.868Z,40.91
2022-08-09T18:54:49.604Z,40.84
2022-08-09T18:57:19.804Z,41.33
2022-08-09T18:59:54.334Z,42.06
2022-08-09T19:02:32.314Z,41.68
2022-08-09T19:05:20.181Z,42.36
2022-08-09T19:07:59.021Z,42.49
2022-08-09T19:10:26.720Z,43.61
2022-08-09T19:13:18.003Z,44.24
2022-08-09T19:15:40.360Z,44.86
2022-08-09T19:18:17.257Z,45.63
2022-08-09T19:20:56.990Z,46.05
2022-08-09T19:24:32.452Z,46.26
2022-08-09T19:26:13.643Z,46.72
2022-08-09T19:28:48.598Z,46.49
2022-08-09T19:31:16.763Z,46.90
2022-08-09T19:33:43.639Z,47.28
2022-08-09T19:36:13.270Z,48.06
2022-08-09T19:38:40.518Z,48.61
2022-08-09T19:41:10.187Z,48.50
2022-08-09T19:44:01.304Z,48.39
2022-08-09T19:46:34.435Z,49.18
2022-08-09T19:50:09.150Z,50.11
2022-08-09T19:51:55.908Z,49.59
2022-08-09T19:54:26.958Z,49.91
2022-08-09T19:56:54.633Z,50.31
2022-08-09T19:59:58.413Z,50.83
2022-08-09T20:02:17.089Z,50.54
2022-08-09T20:04:57.872Z,50.93
2022-08-09T20:07:33.792Z,50.67
2022-08-09T20:10:22.147Z,51.10
2022-08-09T20:12:55.653Z,51.38
2022-08-09T20:16:36.942Z,51.10
2022-08-09T20:18:22.662Z,51.05
2022-08-09T20:20:54.280Z,50.90
2022-08-09T20:23:39.833Z,50.96
2022-08-09T20:26:17.644Z,50.82
2022-08-09T20:29:18.868Z,51.87
2022-08-09T20:32:28.705Z,52.47
2022-08-09T20:34:53.972Z,53.42
2022-08-09T20:38:19.076Z,53.72
2022-08-09T20:40:35.572Z,53.70
2022-08-09T20:43:19.216Z,54.50
2022-08-09T20:46:02.031Z,54.62
2022-08-09T20:48:50.879Z,53.73
2022-08-09T20:51:25.826Z,54.11
2022-08-09T20:53:56.993Z,54.82
2022-08-09T20:56:26.111Z,55.00
2022-08-09T20:58:59.246Z,55.18
2022-08-09T21:05:51.829Z,55.99
2022-08-09T21:07:20.203Z,56.50
2022-08-09T21:09:58.344Z,57.37
2022-08-09T21:15:17.069Z,57.34
2022-08-09T21:18:11.730Z,58.81
2022-08-09T21:20:32.259Z,60.26
2022-08-09T21:23:00.462Z,59.46
2022-08-09T21:25:56.527Z,60.15
2022-08-09T21:28:34.417Z,61.29
2022-08-09T21:31:18.032Z,61.94
2022-08-09T21:33:50.649Z,62.24
2022-08-09T21:36:18.910Z,62.01
2022-08-09T21:38:45.632Z,61.74
2022-08-09T21:41:17.780Z,64.70
2022-08-09T21:43:56.130Z,64.76
2022-08-09T21:46:24.885Z,65.14
2022-08-09T21:48:52.091Z,65.52
2022-08-09T21:51:24.053Z,66.62
2022-08-09T21:53:55.081Z,66.29
2022-08-09T21:56:43.024Z,66.16
2022-08-09T21:59:09.210Z,67.61
2022-08-09T22:01:59.431Z,68.36
2022-08-09T22:04:37.566Z,69.88
2022-08-09T22:07:10.043Z,69.84
2022-08-09T22:09:40.846Z,70.29
2022-08-09T22:12:18.933Z,71.76
2022-08-09T22:14:56.651Z,70.46
2022-08-09T22:17:24.080Z,71.60
2022-08-09T22:19:58.896Z,71.59
2022-08-09T22:22:28.162Z,71.38
2022-08-09T22:26:07.584Z,71.22
2022-08-09T22:27:41.198Z,72.81
2022-08-09T22:30:09.761Z,73.28
2022-08-09T22:32:37.583Z,73.58
2022-08-09T22:35:59.963Z,73.75
2022-08-09T22:38:03.309Z,74.00
2022-08-09T22:40:34.409Z,74.04
2022-08-09T22:43:00.952Z,74.91
2022-08-09T22:48:18.406Z,75.00
2022-08-09T22:48:34.629Z,75.46
2022-08-09T22:51:10.680Z,75.32
2022-08-09T22:53:58.569Z,75.50
2022-08-09T22:56:34.290Z,76.78
2022-08-09T22:59:05.990Z,77.25
2022-08-09T23:01:49.421Z,77.24
2022-08-09T23:04:17.256Z,77.14
2022-08-09T23:07:02.419Z,76.82
2022-08-09T23:09:28.938Z,76.77
2022-08-09T23:11:55.651Z,75.97
2022-08-09T23:14:37.388Z,76.47
2022-08-09T23:17:08.680Z,76.77
2022-08-09T23:20:00.703Z,77.32
2022-08-09T23:22:21.695Z,75.86
2022-08-09T23:24:48.832Z,76.31
2022-08-09T23:27:15.903Z,75.71
2022-08-09T23:29:42.500Z,75.44
2022-08-09T23:32:09.276Z,75.38
2022-08-09T23:34:36.687Z,75.56
2022-08-09T23:37:04.402Z,75.23
2022-08-09T23:39:31.582Z,76.71
2022-08-09T23:41:58.375Z,77.13
2022-08-09T23:44:24.908Z,77.52
2022-08-09T23:46:52.901Z,76.71
2022-08-09T23:49:25.494Z,76.45
2022-08-09T23:51:52.734Z,76.26
2022-08-09T23:54:19.705Z,77.77
2022-08-09T23:56:54.683Z,76.45
2022-08-09T23:59:23.499Z,75.89
